sensor_id;sensor_type;location;lat;lon;timestamp;pressure;altitude;pressure_sealevel;temperature;humidity
41513;BME280;27244;59.940;30.280;2023-04-07T00:00:33;102907.69;;;24.39;21.86
41513;BME280;27244;59.940;30.280;2023-04-07T00:03:00;102902.84;;;24.39;21.59
41513;BME280;27244;59.940;30.280;2023-04-07T00:05:31;102903.28;;;24.38;21.63
41513;BME280;27244;59.940;30.280;2023-04-07T00:07:58;102908.50;;;24.39;21.59
41513;BME280;27244;59.940;30.280;2023-04-07T00:10:26;102908.50;;;24.39;21.72
41513;BME280;27244;59.940;30.280;2023-04-07T00:12:53;102891.97;;;24.31;21.67
41513;BME280;27244;59.940;30.280;2023-04-07T00:15:20;102902.47;;;24.37;21.67
41513;BME280;27244;59.940;30.280;2023-04-07T00:17:47;102903.66;;;24.36;21.53
41513;BME280;27244;59.940;30.280;2023-04-07T00:20:14;102901.22;;;24.35;21.55
41513;BME280;27244;59.940;30.280;2023-04-07T00:22:41;102901.66;;;24.37;21.98
41513;BME280;27244;59.940;30.280;2023-04-07T00:25:08;102894.78;;;24.34;21.61
41513;BME280;27244;59.940;30.280;2023-04-07T00:27:37;102899.63;;;24.37;21.67
41513;BME280;27244;59.940;30.280;2023-04-07T00:30:05;102898.81;;;24.37;21.75
41513;BME280;27244;59.940;30.280;2023-04-07T00:32:32;102897.19;;;24.36;21.57
41513;BME280;27244;59.940;30.280;2023-04-07T00:34:59;102895.56;;;24.35;21.70
41513;BME280;27244;59.940;30.280;2023-04-07T00:37:26;102900.44;;;24.34;21.55
41513;BME280;27244;59.940;30.280;2023-04-07T00:39:53;102885.09;;;24.32;21.33
41513;BME280;27244;59.940;30.280;2023-04-07T00:42:21;102898.00;;;24.33;21.58
41513;BME280;27244;59.940;30.280;2023-04-07T00:44:50;102899.63;;;24.34;21.50
41513;BME280;27244;59.940;30.280;2023-04-07T00:47:17;102892.38;;;24.33;21.52
41513;BME280;27244;59.940;30.280;2023-04-07T00:49:44;102893.56;;;24.32;21.45
41513;BME280;27244;59.940;30.280;2023-04-07T00:52:11;102898.00;;;24.33;21.29
41513;BME280;27244;59.940;30.280;2023-04-07T00:54:38;102896.38;;;24.32;21.52
41513;BME280;27244;59.940;30.280;2023-04-07T00:57:07;102895.97;;;24.30;21.45
41513;BME280;27244;59.940;30.280;2023-04-07T00:59:34;102893.16;;;24.30;21.39
41513;BME280;27244;59.940;30.280;2023-04-07T01:02:09;102900.81;;;24.33;21.79
41513;BME280;27244;59.940;30.280;2023-04-07T01:04:42;102891.97;;;24.31;21.44
41513;BME280;27244;59.940;30.280;2023-04-07T01:07:15;102895.19;;;24.33;21.41
41513;BME280;27244;59.940;30.280;2023-04-07T01:09:55;102897.19;;;24.32;21.18
41513;BME280;27244;59.940;30.280;2023-04-07T01:12:28;102898.38;;;24.31;21.24
41513;BME280;27244;59.940;30.280;2023-04-07T01:15:06;102895.56;;;24.35;21.24
41513;BME280;27244;59.940;30.280;2023-04-07T01:17:44;102893.56;;;24.32;21.45
41513;BME280;27244;59.940;30.280;2023-04-07T01:20:16;102887.53;;;24.30;21.45
41513;BME280;27244;59.940;30.280;2023-04-07T01:22:52;102892.34;;;24.29;21.30
41513;BME280;27244;59.940;30.280;2023-04-07T01:25:47;102891.97;;;24.31;21.49
41513;BME280;27244;59.940;30.280;2023-04-07T01:28:43;102896.00;;;24.33;21.48
41513;BME280;27244;59.940;30.280;2023-04-07T01:31:17;102889.91;;;24.28;21.28
41513;BME280;27244;59.940;30.280;2023-04-07T01:33:45;102890.31;;;24.26;21.27
41513;BME280;27244;59.940;30.280;2023-04-07T01:36:14;102897.97;;;24.26;21.26
41513;BME280;27244;59.940;30.280;2023-04-07T01:38:43;102891.91;;;24.24;21.34
41513;BME280;27244;59.940;30.280;2023-04-07T01:41:10;102893.13;;;24.23;21.33
41513;BME280;27244;59.940;30.280;2023-04-07T01:43:40;102880.63;;;24.24;21.08
41513;BME280;27244;59.940;30.280;2023-04-07T01:46:08;102883.41;;;24.17;21.14
41513;BME280;27244;59.940;30.280;2023-04-07T01:48:37;102886.28;;;24.24;21.16
41513;BME280;27244;59.940;30.280;2023-04-07T01:51:06;102889.88;;;24.21;20.83
41513;BME280;27244;59.940;30.280;2023-04-07T01:53:37;102897.16;;;24.22;20.84
41513;BME280;27244;59.940;30.280;2023-04-07T01:56:05;102891.13;;;24.20;21.21
41513;BME280;27244;59.940;30.280;2023-04-07T01:58:34;102892.31;;;24.19;20.91
41513;BME280;27244;59.940;30.280;2023-04-07T02:01:04;102894.34;;;24.22;21.23
41513;BME280;27244;59.940;30.280;2023-04-07T02:03:38;102888.69;;;24.18;21.14
41513;BME280;27244;59.940;30.280;2023-04-07T02:06:07;102893.50;;;24.18;21.02
41513;BME280;27244;59.940;30.280;2023-04-07T02:08:37;102900.78;;;24.19;21.00
41513;BME280;27244;59.940;30.280;2023-04-07T02:11:09;102893.13;;;24.19;21.11
41513;BME280;27244;59.940;30.280;2023-04-07T02:13:38;102888.69;;;24.18;21.16
41513;BME280;27244;59.940;30.280;2023-04-07T02:16:09;102890.69;;;24.18;21.05
41513;BME280;27244;59.940;30.280;2023-04-07T02:18:38;102889.06;;;24.17;20.92
41513;BME280;27244;59.940;30.280;2023-04-07T02:21:06;102889.06;;;24.17;20.99
41513;BME280;27244;59.940;30.280;2023-04-07T02:23:35;102891.88;;;24.17;21.01
41513;BME280;27244;59.940;30.280;2023-04-07T02:26:02;102890.28;;;24.16;20.97
41513;BME280;27244;59.940;30.280;2023-04-07T02:28:29;102884.66;;;24.16;20.83
41513;BME280;27244;59.940;30.280;2023-04-07T02:30:56;102895.13;;;24.15;20.89
41513;BME280;27244;59.940;30.280;2023-04-07T02:33:23;102891.47;;;24.15;21.02
41513;BME280;27244;59.940;30.280;2023-04-07T02:35:52;102902.75;;;24.15;20.81
41513;BME280;27244;59.940;30.280;2023-04-07T02:38:20;102896.31;;;24.14;20.92
41513;BME280;27244;59.940;30.280;2023-04-07T02:40:47;102894.69;;;24.13;20.88
41513;BME280;27244;59.940;30.280;2023-04-07T02:43:14;102899.09;;;24.11;20.82
41513;BME280;27244;59.940;30.280;2023-04-07T02:45:42;102897.06;;;24.11;20.81
41513;BME280;27244;59.940;30.280;2023-04-07T02:48:09;102896.25;;;24.11;20.75
41513;BME280;27244;59.940;30.280;2023-04-07T02:50:36;102892.63;;;24.10;20.97
41513;BME280;27244;59.940;30.280;2023-04-07T02:53:04;102899.09;;;24.11;20.84
41513;BME280;27244;59.940;30.280;2023-04-07T02:55:31;102885.78;;;24.04;20.94
41513;BME280;27244;59.940;30.280;2023-04-07T02:57:58;102895.06;;;24.08;20.79
41513;BME280;27244;59.940;30.280;2023-04-07T03:00:34;102887.78;;;24.07;20.88
41513;BME280;27244;59.940;30.280;2023-04-07T03:03:15;102896.69;;;24.09;20.94
41513;BME280;27244;59.940;30.280;2023-04-07T03:05:53;102896.63;;;24.06;20.96
41513;BME280;27244;59.940;30.280;2023-04-07T03:08:21;102899.06;;;24.07;20.98
41513;BME280;27244;59.940;30.280;2023-04-07T03:10:48;102897.88;;;24.08;20.82
41513;BME280;27244;59.940;30.280;2023-04-07T03:13:21;102891.41;;;24.08;20.79
41513;BME280;27244;59.940;30.280;2023-04-07T03:15:48;102901.06;;;24.07;20.79
41513;BME280;27244;59.940;30.280;2023-04-07T03:18:16;102901.88;;;24.07;21.07
41513;BME280;27244;59.940;30.280;2023-04-07T03:20:46;102893.81;;;24.06;21.00
41513;BME280;27244;59.940;30.280;2023-04-07T03:23:15;102894.63;;;24.06;20.98
41513;BME280;27244;59.940;30.280;2023-04-07T03:25:43;102901.06;;;24.07;20.86
41513;BME280;27244;59.940;30.280;2023-04-07T03:28:11;102876.06;;;23.94;20.83
41513;BME280;27244;59.940;30.280;2023-04-07T03:30:39;102901.06;;;24.07;20.98
41513;BME280;27244;59.940;30.280;2023-04-07T03:33:06;102900.25;;;24.06;20.94
41513;BME280;27244;59.940;30.280;2023-04-07T03:35:35;102894.22;;;24.04;20.94
41513;BME280;27244;59.940;30.280;2023-04-07T03:38:02;102899.44;;;24.06;20.96
41513;BME280;27244;59.940;30.280;2023-04-07T03:40:29;102887.34;;;23.94;21.01
41513;BME280;27244;59.940;30.280;2023-04-07T03:42:59;102895.44;;;24.07;21.01
41513;BME280;27244;59.940;30.280;2023-04-07T03:45:28;102903.09;;;24.06;20.96
41513;BME280;27244;59.940;30.280;2023-04-07T03:48:13;102901.91;;;24.11;21.12
41513;BME280;27244;59.940;30.280;2023-04-07T03:50:52;102904.31;;;24.05;20.87
41513;BME280;27244;59.940;30.280;2023-04-07T03:53:19;102900.69;;;24.05;20.94
41513;BME280;27244;59.940;30.280;2023-04-07T03:55:46;102902.69;;;24.04;21.05
41513;BME280;27244;59.940;30.280;2023-04-07T03:58:25;102910.72;;;24.06;21.12
41513;BME280;27244;59.940;30.280;2023-04-07T04:00:55;102905.50;;;24.04;20.98
41513;BME280;27244;59.940;30.280;2023-04-07T04:03:22;102892.56;;;23.96;21.04
41513;BME280;27244;59.940;30.280;2023-04-07T04:06:04;102907.09;;;24.01;21.19
41513;BME280;27244;59.940;30.280;2023-04-07T04:08:31;102903.06;;;24.02;21.51
41513;BME280;27244;59.940;30.280;2023-04-07T04:10:59;102901.06;;;24.03;21.59
41513;BME280;27244;59.940;30.280;2023-04-07T04:13:34;102893.78;;;24.02;21.68
41513;BME280;27244;59.940;30.280;2023-04-07T04:16:04;102906.31;;;24.05;22.09
41513;BME280;27244;59.940;30.280;2023-04-07T04:18:32;102908.34;;;24.08;22.26
41513;BME280;27244;59.940;30.280;2023-04-07T04:21:00;102910.78;;;24.09;22.44
41513;BME280;27244;59.940;30.280;2023-04-07T04:23:27;102906.34;;;24.12;22.37
41513;BME280;27244;59.940;30.280;2023-04-07T04:25:56;102918.88;;;24.14;22.59
41513;BME280;27244;59.940;30.280;2023-04-07T04:28:25;102913.25;;;24.18;22.59
41513;BME280;27244;59.940;30.280;2023-04-07T04:30:54;102920.09;;;24.20;22.89
41513;BME280;27244;59.940;30.280;2023-04-07T04:33:21;102917.28;;;24.24;22.92
41513;BME280;27244;59.940;30.280;2023-04-07T04:35:54;102926.19;;;24.26;23.09
41513;BME280;27244;59.940;30.280;2023-04-07T04:38:21;102908.44;;;24.22;22.98
41513;BME280;27244;59.940;30.280;2023-04-07T04:40:54;102908.84;;;24.27;23.23
41513;BME280;27244;59.940;30.280;2023-04-07T04:43:25;102903.63;;;24.26;23.15
41513;BME280;27244;59.940;30.280;2023-04-07T04:45:55;102916.56;;;24.34;23.30
41513;BME280;27244;59.940;30.280;2023-04-07T04:48:28;102919.38;;;24.34;23.42
41513;BME280;27244;59.940;30.280;2023-04-07T04:50:56;102915.31;;;24.35;23.61
41513;BME280;27244;59.940;30.280;2023-04-07T04:53:23;102916.56;;;24.34;23.54
41513;BME280;27244;59.940;30.280;2023-04-07T04:55:55;102908.06;;;24.30;23.63
41513;BME280;27244;59.940;30.280;2023-04-07T04:58:43;102914.13;;;24.32;23.90
41513;BME280;27244;59.940;30.280;2023-04-07T05:01:18;102923.41;;;24.36;23.80
41513;BME280;27244;59.940;30.280;2023-04-07T05:03:52;102915.75;;;24.37;23.86
41513;BME280;27244;59.940;30.280;2023-04-07T05:06:25;102916.97;;;24.39;24.05
41513;BME280;27244;59.940;30.280;2023-04-07T05:08:55;102916.16;;;24.39;24.06
41513;BME280;27244;59.940;30.280;2023-04-07T05:11:26;102912.91;;;24.33;24.16
41513;BME280;27244;59.940;30.280;2023-04-07T05:13:55;102925.44;;;24.39;24.11
41513;BME280;27244;59.940;30.280;2023-04-07T05:16:25;102921.78;;;24.39;24.38
41513;BME280;27244;59.940;30.280;2023-04-07T05:18:52;102920.59;;;24.40;24.39
41513;BME280;27244;59.940;30.280;2023-04-07T05:21:19;102913.75;;;24.37;24.50
41513;BME280;27244;59.940;30.280;2023-04-07T05:23:47;102921.00;;;24.42;24.42
41513;BME280;27244;59.940;30.280;2023-04-07T05:26:15;102916.16;;;24.42;24.57
41513;BME280;27244;59.940;30.280;2023-04-07T05:28:42;102919.00;;;24.46;24.74
41513;BME280;27244;59.940;30.280;2023-04-07T05:31:15;102916.59;;;24.44;24.87
41513;BME280;27244;59.940;30.280;2023-04-07T05:33:43;102922.63;;;24.46;24.91
41513;BME280;27244;59.940;30.280;2023-04-07T05:36:11;102920.22;;;24.48;24.87
41513;BME280;27244;59.940;30.280;2023-04-07T05:38:40;102920.63;;;24.47;24.94
41513;BME280;27244;59.940;30.280;2023-04-07T05:41:12;102925.47;;;24.50;24.96
41513;BME280;27244;59.940;30.280;2023-04-07T05:43:39;102916.19;;;24.49;25.14
41513;BME280;27244;59.940;30.280;2023-04-07T05:46:06;102915.00;;;24.50;25.02
41513;BME280;27244;59.940;30.280;2023-04-07T05:48:38;102910.53;;;24.46;25.21
41513;BME280;27244;59.940;30.280;2023-04-07T05:51:07;102920.63;;;24.54;25.12
41513;BME280;27244;59.940;30.280;2023-04-07T05:53:37;102910.16;;;24.55;25.27
41513;BME280;27244;59.940;30.280;2023-04-07T05:56:09;102911.78;;;24.56;25.09
41513;BME280;27244;59.940;30.280;2023-04-07T05:58:43;102905.72;;;24.57;27.13
41513;BME280;27244;59.940;30.280;2023-04-07T06:01:14;102905.34;;;24.59;26.27
41513;BME280;27244;59.940;30.280;2023-04-07T06:03:41;102905.34;;;24.59;25.78
41513;BME280;27244;59.940;30.280;2023-04-07T06:06:15;102909.81;;;24.63;25.82
41513;BME280;27244;59.940;30.280;2023-04-07T06:08:43;102906.97;;;24.63;25.89
41513;BME280;27244;59.940;30.280;2023-04-07T06:11:11;102897.69;;;24.63;25.90
41513;BME280;27244;59.940;30.280;2023-04-07T06:13:38;102912.22;;;24.68;25.96
41513;BME280;27244;59.940;30.280;2023-04-07T06:16:05;102914.66;;;24.73;25.91
41513;BME280;27244;59.940;30.280;2023-04-07T06:18:32;102917.47;;;24.73;25.78
41513;BME280;27244;59.940;30.280;2023-04-07T06:20:59;102916.66;;;24.73;25.89
41513;BME280;27244;59.940;30.280;2023-04-07T06:23:27;102911.00;;;24.69;25.88
41513;BME280;27244;59.940;30.280;2023-04-07T06:25:54;102911.41;;;24.75;25.66
41513;BME280;27244;59.940;30.280;2023-04-07T06:28:21;102914.22;;;24.75;26.00
41513;BME280;27244;59.940;30.280;2023-04-07T06:30:48;102910.22;;;24.76;26.05
41513;BME280;27244;59.940;30.280;2023-04-07T06:33:15;102922.31;;;24.80;25.89
41513;BME280;27244;59.940;30.280;2023-04-07T06:35:43;102923.94;;;24.81;25.92
41513;BME280;27244;59.940;30.280;2023-04-07T06:38:11;102919.50;;;24.80;25.89
41513;BME280;27244;59.940;30.280;2023-04-07T06:40:40;102924.75;;;24.81;26.28
41513;BME280;27244;59.940;30.280;2023-04-07T06:43:07;102913.84;;;24.80;26.38
41513;BME280;27244;59.940;30.280;2023-04-07T06:45:47;102917.06;;;24.82;26.44
41513;BME280;27244;59.940;30.280;2023-04-07T06:48:15;102924.78;;;24.85;26.43
41513;BME280;27244;59.940;30.280;2023-04-07T06:50:45;102916.31;;;24.85;26.11
41513;BME280;27244;59.940;30.280;2023-04-07T06:53:12;102924.38;;;24.86;26.35
41513;BME280;27244;59.940;30.280;2023-04-07T06:55:40;102917.88;;;24.82;26.13
41513;BME280;27244;59.940;30.280;2023-04-07T06:58:07;102918.69;;;24.83;26.21
41513;BME280;27244;59.940;30.280;2023-04-07T07:00:34;102924.81;;;24.88;26.26
41513;BME280;27244;59.940;30.280;2023-04-07T07:03:01;102919.94;;;24.89;26.10
41513;BME280;27244;59.940;30.280;2023-04-07T07:05:28;102914.28;;;24.85;26.44
41513;BME280;27244;59.940;30.280;2023-04-07T07:07:55;102921.97;;;24.88;26.17
41513;BME280;27244;59.940;30.280;2023-04-07T07:10:22;102907.81;;;24.81;26.27
41513;BME280;27244;59.940;30.280;2023-04-07T07:12:51;102911.47;;;24.89;26.56
41513;BME280;27244;59.940;30.280;2023-04-07T07:15:18;102919.16;;;24.92;26.47
41513;BME280;27244;59.940;30.280;2023-04-07T07:17:45;102922.38;;;24.90;26.49
41513;BME280;27244;59.940;30.280;2023-04-07T07:20:12;102923.19;;;24.91;26.80
41513;BME280;27244;59.940;30.280;2023-04-07T07:22:39;102922.75;;;24.92;26.74
41513;BME280;27244;59.940;30.280;2023-04-07T07:25:06;102921.97;;;24.88;26.60
41513;BME280;27244;59.940;30.280;2023-04-07T07:27:34;102925.59;;;24.92;27.23
41513;BME280;27244;59.940;30.280;2023-04-07T07:30:03;102920.34;;;24.87;26.88
41513;BME280;27244;59.940;30.280;2023-04-07T07:32:30;102922.00;;;24.95;26.96
41513;BME280;27244;59.940;30.280;2023-04-07T07:34:58;102924.00;;;24.95;27.13
41513;BME280;27244;59.940;30.280;2023-04-07T07:37:25;102922.38;;;24.97;27.29
41513;BME280;27244;59.940;30.280;2023-04-07T07:39:52;102917.53;;;24.94;27.49
41513;BME280;27244;59.940;30.280;2023-04-07T07:42:20;102917.94;;;25.00;27.37
41513;BME280;27244;59.940;30.280;2023-04-07T07:44:47;102924.00;;;24.98;27.71
41513;BME280;27244;59.940;30.280;2023-04-07T07:47:17;102911.88;;;24.91;27.82
41513;BME280;27244;59.940;30.280;2023-04-07T07:49:44;102912.72;;;24.98;27.89
41513;BME280;27244;59.940;30.280;2023-04-07T07:52:10;102912.72;;;25.02;27.95
41513;BME280;27244;59.940;30.280;2023-04-07T07:54:37;102917.94;;;25.04;28.18
41513;BME280;27244;59.940;30.280;2023-04-07T07:57:04;102911.91;;;24.98;28.23
41513;BME280;27244;59.940;30.280;2023-04-07T07:59:32;102913.53;;;25.03;28.08
41513;BME280;27244;59.940;30.280;2023-04-07T08:01:59;102913.53;;;25.03;28.19
41513;BME280;27244;59.940;30.280;2023-04-07T08:04:27;102914.34;;;25.07;28.25
41513;BME280;27244;59.940;30.280;2023-04-07T08:06:54;102911.50;;;25.10;28.06
41513;BME280;27244;59.940;30.280;2023-04-07T08:09:21;102907.06;;;25.09;28.18
41513;BME280;27244;59.940;30.280;2023-04-07T08:11:48;102907.88;;;25.10;27.91
41513;BME280;27244;59.940;30.280;2023-04-07T08:14:15;102911.50;;;25.10;28.28
41513;BME280;27244;59.940;30.280;2023-04-07T08:16:43;102906.25;;;25.09;27.89
41513;BME280;27244;59.940;30.280;2023-04-07T08:19:11;102901.41;;;25.02;28.69
41513;BME280;27244;59.940;30.280;2023-04-07T08:21:39;102902.22;;;24.99;28.66
41513;BME280;27244;59.940;30.280;2023-04-07T08:24:09;102896.56;;;24.92;28.56
41513;BME280;27244;59.940;30.280;2023-04-07T08:26:36;102896.56;;;24.88;28.76
41513;BME280;27244;59.940;30.280;2023-04-07T08:29:03;102904.22;;;24.88;28.65
41513;BME280;27244;59.940;30.280;2023-04-07T08:31:30;102902.19;;;24.81;28.52
41513;BME280;27244;59.940;30.280;2023-04-07T08:33:57;102905.78;;;24.82;28.61
41513;BME280;27244;59.940;30.280;2023-04-07T08:36:24;102905.78;;;24.78;28.48
41513;BME280;27244;59.940;30.280;2023-04-07T08:38:53;102892.06;;;24.73;28.63
41513;BME280;27244;59.940;30.280;2023-04-07T08:41:26;102900.53;;;24.77;28.65
41513;BME280;27244;59.940;30.280;2023-04-07T08:43:55;102898.91;;;24.72;28.48
41513;BME280;27244;59.940;30.280;2023-04-07T08:46:27;102892.44;;;24.65;28.59
41513;BME280;27244;59.940;30.280;2023-04-07T08:48:56;102890.44;;;24.69;28.59
41513;BME280;27244;59.940;30.280;2023-04-07T08:51:27;102891.63;;;24.68;28.52
41513;BME280;27244;59.940;30.280;2023-04-07T08:54:01;102897.28;;;24.71;28.82
41513;BME280;27244;59.940;30.280;2023-04-07T08:56:31;102894.47;;;24.64;29.04
41513;BME280;27244;59.940;30.280;2023-04-07T08:59:01;102884.78;;;24.65;29.13
41513;BME280;27244;59.940;30.280;2023-04-07T09:01:28;102894.06;;;24.62;29.04
41513;BME280;27244;59.940;30.280;2023-04-07T09:03:56;102887.22;;;24.60;29.00
41513;BME280;27244;59.940;30.280;2023-04-07T09:06:23;102883.97;;;24.58;29.19
41513;BME280;27244;59.940;30.280;2023-04-07T09:08:51;102888.81;;;24.57;29.23
41513;BME280;27244;59.940;30.280;2023-04-07T09:11:20;102877.94;;;24.56;29.64
41513;BME280;27244;59.940;30.280;2023-04-07T09:13:48;102879.94;;;24.59;29.50
41513;BME280;27244;59.940;30.280;2023-04-07T09:16:16;102865.81;;;24.48;29.48
41513;BME280;27244;59.940;30.280;2023-04-07T09:18:43;102885.59;;;24.59;29.60
41513;BME280;27244;59.940;30.280;2023-04-07T09:21:10;102881.16;;;24.58;29.87
41513;BME280;27244;59.940;30.280;2023-04-07T09:23:38;102889.22;;;24.59;29.98
41513;BME280;27244;59.940;30.280;2023-04-07T09:26:22;102883.59;;;24.66;29.59
41513;BME280;27244;59.940;30.280;2023-04-07T09:28:52;102873.88;;;24.53;29.67
41513;BME280;27244;59.940;30.280;2023-04-07T09:31:19;102881.97;;;24.65;29.90
41513;BME280;27244;59.940;30.280;2023-04-07T09:33:47;102875.50;;;24.61;30.12
41513;BME280;27244;59.940;30.280;2023-04-07T09:36:15;102883.16;;;24.61;29.97
41513;BME280;27244;59.940;30.280;2023-04-07T09:38:43;102872.69;;;24.61;30.09
41513;BME280;27244;59.940;30.280;2023-04-07T09:41:12;102865.44;;;24.64;30.28
41513;BME280;27244;59.940;30.280;2023-04-07T09:43:42;102877.53;;;24.64;30.29
41513;BME280;27244;59.940;30.280;2023-04-07T09:46:12;102868.25;;;24.60;30.16
41513;BME280;27244;59.940;30.280;2023-04-07T09:48:39;102856.97;;;24.60;30.06
41513;BME280;27244;59.940;30.280;2023-04-07T09:51:10;102865.41;;;24.60;30.18
41513;BME280;27244;59.940;30.280;2023-04-07T09:53:43;102860.59;;;24.64;30.23
41513;BME280;27244;59.940;30.280;2023-04-07T09:56:11;102861.81;;;24.56;34.52
41513;BME280;27244;59.940;30.280;2023-04-07T09:58:38;102855.75;;;24.58;31.61
41513;BME280;27244;59.940;30.280;2023-04-07T10:01:08;102861.41;;;24.58;31.31
41513;BME280;27244;59.940;30.280;2023-04-07T10:03:36;102859.00;;;24.56;31.46
41513;BME280;27244;59.940;30.280;2023-04-07T10:06:04;102855.34;;;24.56;31.83
41513;BME280;27244;59.940;30.280;2023-04-07T10:08:33;102860.19;;;24.59;31.69
41513;BME280;27244;59.940;30.280;2023-04-07T10:11:01;102850.53;;;24.56;31.65
41513;BME280;27244;59.940;30.280;2023-04-07T10:13:28;102843.25;;;24.55;31.41
41513;BME280;27244;59.940;30.280;2023-04-07T10:15:56;102842.44;;;24.58;31.52
41513;BME280;27244;59.940;30.280;2023-04-07T10:18:28;102849.72;;;24.59;31.83
41513;BME280;27244;59.940;30.280;2023-04-07T10:20:56;102844.88;;;24.60;31.63
41513;BME280;27244;59.940;30.280;2023-04-07T10:23:30;102837.63;;;24.62;31.82
41513;BME280;27244;59.940;30.280;2023-04-07T10:26:01;102848.09;;;24.58;31.75
41513;BME280;27244;59.940;30.280;2023-04-07T10:28:30;102834.38;;;24.60;31.97
41513;BME280;27244;59.940;30.280;2023-04-07T10:30:58;102831.16;;;24.58;31.86
41513;BME280;27244;59.940;30.280;2023-04-07T10:33:51;102834.38;;;24.67;31.57
41513;BME280;27244;59.940;30.280;2023-04-07T10:36:19;102838.81;;;24.61;31.56
41513;BME280;27244;59.940;30.280;2023-04-07T10:39:19;102831.56;;;24.67;31.50
41513;BME280;27244;59.940;30.280;2023-04-07T10:41:46;102832.38;;;24.57;32.73
41513;BME280;27244;59.940;30.280;2023-04-07T10:44:47;102833.19;;;24.68;31.67
41513;BME280;27244;59.940;30.280;2023-04-07T10:47:15;102825.91;;;24.60;31.82
41513;BME280;27244;59.940;30.280;2023-04-07T10:50:16;102833.59;;;24.67;31.60
41513;BME280;27244;59.940;30.280;2023-04-07T10:52:45;102825.13;;;24.60;32.35
41513;BME280;27244;59.940;30.280;2023-04-07T10:55:33;102825.13;;;24.67;31.74
41513;BME280;27244;59.940;30.280;2023-04-07T10:58:13;102823.53;;;24.66;31.74
41513;BME280;27244;59.940;30.280;2023-04-07T11:00:41;102818.25;;;24.61;32.02
41513;BME280;27244;59.940;30.280;2023-04-07T11:03:10;102823.09;;;24.60;32.01
41513;BME280;27244;59.940;30.280;2023-04-07T11:05:40;102814.25;;;24.62;31.77
41513;BME280;27244;59.940;30.280;2023-04-07T11:08:07;102815.44;;;24.61;31.94
41513;BME280;27244;59.940;30.280;2023-04-07T11:10:34;102811.00;;;24.53;31.76
41513;BME280;27244;59.940;30.280;2023-04-07T11:13:06;102815.84;;;24.63;31.71
41513;BME280;27244;59.940;30.280;2023-04-07T11:15:33;102813.44;;;24.75;31.19
41513;BME280;27244;59.940;30.280;2023-04-07T11:18:09;102809.78;;;24.64;31.83
41513;BME280;27244;59.940;30.280;2023-04-07T11:20:43;102808.97;;;24.60;32.09
41513;BME280;27244;59.940;30.280;2023-04-07T11:23:10;102806.16;;;24.53;32.16
41513;BME280;27244;59.940;30.280;2023-04-07T11:25:38;102807.78;;;24.54;32.11
41513;BME280;27244;59.940;30.280;2023-04-07T11:28:05;102809.41;;;24.55;32.15
41513;BME280;27244;59.940;30.280;2023-04-07T11:30:35;102802.56;;;24.56;32.49
41513;BME280;27244;59.940;30.280;2023-04-07T11:33:02;102802.94;;;24.58;32.40
41513;BME280;27244;59.940;30.280;2023-04-07T11:35:30;102799.72;;;24.56;31.93
41513;BME280;27244;59.940;30.280;2023-04-07T11:37:59;102793.66;;;24.58;32.16
41513;BME280;27244;59.940;30.280;2023-04-07T11:40:33;102801.75;;;24.63;32.08
41513;BME280;27244;59.940;30.280;2023-04-07T11:43:01;102796.09;;;24.59;32.15
41513;BME280;27244;59.940;30.280;2023-04-07T11:45:28;102793.28;;;24.59;32.41
41513;BME280;27244;59.940;30.280;2023-04-07T11:47:55;102791.66;;;24.58;32.14
41513;BME280;27244;59.940;30.280;2023-04-07T11:50:38;102786.84;;;24.66;32.02
41513;BME280;27244;59.940;30.280;2023-04-07T11:53:08;102780.38;;;24.58;32.16
41513;BME280;27244;59.940;30.280;2023-04-07T11:55:35;102786.81;;;24.62;32.31
41513;BME280;27244;59.940;30.280;2023-04-07T11:58:05;102778.75;;;24.64;32.24
41513;BME280;27244;59.940;30.280;2023-04-07T12:00:34;102780.75;;;24.60;32.35
41513;BME280;27244;59.940;30.280;2023-04-07T12:03:09;102778.75;;;24.64;31.46
41513;BME280;27244;59.940;30.280;2023-04-07T12:05:42;102767.47;;;24.61;30.79
41513;BME280;27244;59.940;30.280;2023-04-07T12:08:14;102767.47;;;24.57;30.30
41513;BME280;27244;59.940;30.280;2023-04-07T12:10:42;102779.56;;;24.54;29.88
41513;BME280;27244;59.940;30.280;2023-04-07T12:13:09;102757.00;;;24.50;29.33
41513;BME280;27244;59.940;30.280;2023-04-07T12:15:36;102758.19;;;24.46;29.32
41513;BME280;27244;59.940;30.280;2023-04-07T12:18:03;102773.53;;;24.48;29.16
41513;BME280;27244;59.940;30.280;2023-04-07T12:20:30;102763.44;;;24.47;28.82
41513;BME280;27244;59.940;30.280;2023-04-07T12:22:57;102772.28;;;24.46;28.47
41513;BME280;27244;59.940;30.280;2023-04-07T12:25:26;102763.44;;;24.44;28.26
41513;BME280;27244;59.940;30.280;2023-04-07T12:27:53;102755.34;;;24.39;28.16
41513;BME280;27244;59.940;30.280;2023-04-07T12:30:20;102760.19;;;24.42;27.72
41513;BME280;27244;59.940;30.280;2023-04-07T12:32:48;102759.41;;;24.38;27.71
41513;BME280;27244;59.940;30.280;2023-04-07T12:35:15;102756.56;;;24.31;27.66
41513;BME280;27244;59.940;30.280;2023-04-07T12:37:42;102770.69;;;24.38;27.45
41513;BME280;27244;59.940;30.280;2023-04-07T12:40:10;102741.66;;;24.23;27.31
41513;BME280;27244;59.940;30.280;2023-04-07T12:42:39;102765.44;;;24.36;27.30
41513;BME280;27244;59.940;30.280;2023-04-07T12:45:07;102765.03;;;24.34;27.04
41513;BME280;27244;59.940;30.280;2023-04-07T12:47:34;102764.63;;;24.32;26.86
41513;BME280;27244;59.940;30.280;2023-04-07T12:50:02;102759.41;;;24.31;26.68
41513;BME280;27244;59.940;30.280;2023-04-07T12:52:29;102756.16;;;24.29;26.11